Terminal Aerodrome Forecast
Issued by NWS Green Bay, WI

Home | Current Version | Previous Version | Text Only | Print | Product List | Glossary Off
Versions: 1 2 3 4 5 6 7 8 9 10 11 12 13 14 15 16 17 18 19 20 21 22 23 24 25 26 27 28 29 30 31 32 33 34 35 36 37 38 39 40 41 42 43 44 45 46 47 48

000
FTUS43 KGRB 191000 AAB
TAFGRB
TAF AMD
KGRB 191045Z 1911/2006 18005KT 3SM BR OVC003
      TEMPO 1911/1913 1 1/2SM BR SCT003 OVC008
     FM191500 20012G20KT P6SM SCT100 BKN250
     FM200000 19009KT P6SM BKN100 BKN250=

USA.gov is the U.S. government's official web portal to all federal, state and local government web resources and services.